createdAt,value
2022-10-20T00:00:57.895Z,13.33
2022-10-20T00:03:27.433Z,13.49
2022-10-20T00:05:56.060Z,13.46
2022-10-20T00:08:23.857Z,13.86
2022-10-20T00:10:55.198Z,14.23
2022-10-20T00:13:25.028Z,14.60
2022-10-20T00:15:54.882Z,14.41
2022-10-20T00:18:23.616Z,14.88
2022-10-20T00:20:52.007Z,14.82
2022-10-20T00:23:19.972Z,14.90
2022-10-20T00:25:47.737Z,14.97
2022-10-20T00:28:15.418Z,15.01
2022-10-20T00:30:44.716Z,15.21
2022-10-20T00:33:12.402Z,14.80
2022-10-20T00:35:40.343Z,14.41
2022-10-20T00:38:08.124Z,13.90
2022-10-20T00:40:35.934Z,13.93
2022-10-20T00:43:05.839Z,14.15
2022-10-20T00:45:33.565Z,14.52
2022-10-20T00:48:07.884Z,14.14
2022-10-20T00:50:41.674Z,13.97
2022-10-20T00:53:09.685Z,14.30
2022-10-20T00:55:41.429Z,14.73
2022-10-20T00:58:10.115Z,14.74
2022-10-20T01:00:39.962Z,14.65
2022-10-20T01:03:14.306Z,14.83
2022-10-20T01:05:42.056Z,14.77
2022-10-20T01:08:09.764Z,14.29
2022-10-20T01:10:41.985Z,14.35
2022-10-20T01:13:16.711Z,14.38
2022-10-20T01:15:49.939Z,14.32
2022-10-20T01:18:29.191Z,14.16
2022-10-20T01:21:17.196Z,14.06
2022-10-20T01:24:01.418Z,13.75
2022-10-20T01:26:53.150Z,13.68
2022-10-20T01:29:29.936Z,13.82
2022-10-20T01:32:08.564Z,14.26
2022-10-20T01:34:45.908Z,14.07
2022-10-20T01:37:33.949Z,14.64
2022-10-20T01:40:14.785Z,14.48
2022-10-20T01:42:49.819Z,14.54
2022-10-20T01:45:22.679Z,14.68
2022-10-20T01:47:52.707Z,14.81
2022-10-20T01:50:21.775Z,14.86
2022-10-20T01:52:49.677Z,14.80
2022-10-20T01:55:19.684Z,14.90
2022-10-20T01:58:03.450Z,14.96
2022-10-20T02:00:32.817Z,14.88
2022-10-20T02:03:24.742Z,14.59
2022-10-20T02:06:05.783Z,14.57
2022-10-20T02:08:40.906Z,14.72
2022-10-20T02:11:15.836Z,14.78
2022-10-20T02:13:45.991Z,13.92
2022-10-20T02:16:21.374Z,13.72
2022-10-20T02:18:49.775Z,13.09
2022-10-20T02:21:17.998Z,13.49
2022-10-20T02:23:49.835Z,14.01
2022-10-20T02:26:20.534Z,14.42
2022-10-20T02:28:55.723Z,14.06
2022-10-20T02:31:25.551Z,13.40
2022-10-20T02:33:55.793Z,13.81
2022-10-20T02:36:29.644Z,13.94
2022-10-20T02:38:57.700Z,14.09
2022-10-20T02:41:26.640Z,13.93
2022-10-20T02:43:54.352Z,14.10
2022-10-20T02:46:22.187Z,14.15
2022-10-20T02:48:53.390Z,13.27
2022-10-20T02:51:21.411Z,13.32
2022-10-20T02:53:49.873Z,13.13
2022-10-20T02:56:17.657Z,13.01
2022-10-20T02:58:45.378Z,13.05
2022-10-20T03:01:13.178Z,13.56
2022-10-20T03:03:40.932Z,14.09
2022-10-20T03:06:11.809Z,14.26
2022-10-20T03:08:40.285Z,14.36
2022-10-20T03:11:11.181Z,14.16
2022-10-20T03:13:38.862Z,13.52
2022-10-20T03:16:07.059Z,13.19
2022-10-20T03:18:34.871Z,13.36
2022-10-20T03:21:02.642Z,13.58
2022-10-20T03:23:31.765Z,13.88
2022-10-20T03:26:03.420Z,13.52
2022-10-20T03:28:31.514Z,13.97
2022-10-20T03:30:59.608Z,14.18
2022-10-20T03:33:27.648Z,14.13
2022-10-20T03:35:55.416Z,13.08
2022-10-20T03:38:23.449Z,13.31
2022-10-20T03:40:52.653Z,13.97
2022-10-20T03:43:20.361Z,14.04
2022-10-20T03:45:48.121Z,13.90
2022-10-20T03:48:15.855Z,13.00
2022-10-20T03:50:44.398Z,12.43
2022-10-20T03:53:13.979Z,12.27
2022-10-20T03:55:41.791Z,12.31
2022-10-20T03:58:13.019Z,12.50
2022-10-20T04:00:41.018Z,12.96
2022-10-20T04:03:08.742Z,13.46
2022-10-20T04:05:36.460Z,13.81
2022-10-20T04:08:04.821Z,13.19
2022-10-20T04:10:32.726Z,13.45
2022-10-20T04:13:01.275Z,13.91
2022-10-20T04:15:30.668Z,13.67
2022-10-20T04:17:58.704Z,13.56
2022-10-20T04:20:28.905Z,13.01
2022-10-20T04:22:56.664Z,13.34
2022-10-20T04:25:24.401Z,13.56
2022-10-20T04:27:52.461Z,13.50
2022-10-20T04:30:20.280Z,13.83
2022-10-20T04:32:49.397Z,14.10
2022-10-20T04:35:17.369Z,14.35
2022-10-20T04:37:45.271Z,14.22
2022-10-20T04:40:13.473Z,14.51
2022-10-20T04:42:41.214Z,14.34
2022-10-20T04:45:10.050Z,14.52
2022-10-20T04:47:40.299Z,14.70
2022-10-20T04:50:10.690Z,14.70
2022-10-20T04:52:38.466Z,14.21
2022-10-20T04:55:07.016Z,13.27
2022-10-20T04:57:35.009Z,13.89
2022-10-20T05:00:03.436Z,13.80
2022-10-20T05:02:31.177Z,13.92
2022-10-20T05:04:58.897Z,13.55
2022-10-20T05:07:30.517Z,12.92
2022-10-20T05:10:00.893Z,13.69
2022-10-20T05:12:28.869Z,14.11
2022-10-20T05:14:56.789Z,14.01
2022-10-20T05:17:24.484Z,13.73
2022-10-20T05:19:52.193Z,13.73
2022-10-20T05:22:19.957Z,13.77
2022-10-20T05:24:49.188Z,14.14
2022-10-20T05:27:16.983Z,14.07
2022-10-20T05:29:44.779Z,14.34
2022-10-20T05:32:12.883Z,14.47
2022-10-20T05:34:40.576Z,14.73
2022-10-20T05:37:08.372Z,14.80
2022-10-20T05:39:36.136Z,14.55
2022-10-20T05:42:05.620Z,14.17
2022-10-20T05:44:33.501Z,14.28
2022-10-20T05:47:01.368Z,14.68
2022-10-20T05:49:29.316Z,14.61
2022-10-20T05:51:57.171Z,14.48
2022-10-20T05:54:25.061Z,14.10
2022-10-20T05:56:52.800Z,14.45
2022-10-20T05:59:21.902Z,14.30
2022-10-20T06:01:52.851Z,14.44
2022-10-20T06:04:24.073Z,14.61
2022-10-20T06:06:52.146Z,14.45
2022-10-20T06:09:21.280Z,14.81
2022-10-20T06:11:49.296Z,15.12
2022-10-20T06:14:18.220Z,15.17
2022-10-20T06:16:51.667Z,15.31
2022-10-20T06:19:19.893Z,15.06
2022-10-20T06:21:49.319Z,15.32
2022-10-20T06:24:17.896Z,15.28
2022-10-20T06:26:46.287Z,15.29
2022-10-20T06:29:18.677Z,15.49
2022-10-20T06:31:49.883Z,15.58
2022-10-20T06:34:19.734Z,15.74
2022-10-20T06:36:48.632Z,15.73
2022-10-20T06:39:18.517Z,15.90
2022-10-20T06:41:50.703Z,15.77
2022-10-20T06:44:23.062Z,15.28
2022-10-20T06:46:53.342Z,15.58
2022-10-20T06:49:21.781Z,15.89
2022-10-20T06:51:49.829Z,16.08
2022-10-20T06:54:17.950Z,16.19
2022-10-20T06:56:45.777Z,16.16
2022-10-20T06:59:13.467Z,16.23
2022-10-20T07:01:42.178Z,16.27
2022-10-20T07:04:16.128Z,16.20
2022-10-20T07:06:45.858Z,16.28
2022-10-20T07:09:15.667Z,16.31
2022-10-20T07:11:43.994Z,16.66
2022-10-20T07:14:13.489Z,16.85
2022-10-20T07:16:41.235Z,16.89
2022-10-20T07:19:09.020Z,17.19
2022-10-20T07:21:41.650Z,17.13
2022-10-20T07:24:13.055Z,16.86
2022-10-20T07:26:43.225Z,17.32
2022-10-20T07:29:12.666Z,17.64
2022-10-20T07:31:44.816Z,17.50
2022-10-20T07:34:24.902Z,17.46
2022-10-20T07:36:55.650Z,17.69
2022-10-20T07:39:23.393Z,17.72
2022-10-20T07:41:52.185Z,18.06
2022-10-20T07:44:20.011Z,18.22
2022-10-20T07:46:47.865Z,18.45
2022-10-20T07:52:05.675Z,18.46
2022-10-20T07:54:33.391Z,18.33
2022-10-20T07:57:01.113Z,18.31
2022-10-20T07:59:29.554Z,18.35
2022-10-20T08:01:59.615Z,18.34
2022-10-20T08:04:27.997Z,18.34
2022-10-20T08:06:57.850Z,18.63
2022-10-20T08:09:27.030Z,18.83
2022-10-20T08:11:55.979Z,18.91
2022-10-20T08:14:30.648Z,18.77
2022-10-20T08:16:58.892Z,18.48
2022-10-20T08:19:36.457Z,18.79
2022-10-20T08:22:04.242Z,18.92
2022-10-20T08:24:33.472Z,19.19
2022-10-20T08:27:04.795Z,19.36
2022-10-20T08:29:33.522Z,19.71
2022-10-20T08:32:01.337Z,19.90
2022-10-20T08:34:29.458Z,19.57
2022-10-20T08:37:00.450Z,19.08
2022-10-20T08:39:28.850Z,19.03
2022-10-20T08:42:14.168Z,19.14
2022-10-20T08:44:47.236Z,19.47
2022-10-20T08:47:22.048Z,19.78
2022-10-20T08:49:50.013Z,20.00
2022-10-20T08:52:19.460Z,20.49
2022-10-20T08:54:55.572Z,20.39
2022-10-20T08:57:27.747Z,21.12
2022-10-20T08:59:57.508Z,21.15
2022-10-20T09:02:25.421Z,20.95
2022-10-20T09:04:56.448Z,20.40
2022-10-20T09:07:29.254Z,20.92
2022-10-20T09:10:05.646Z,20.63
2022-10-20T09:12:35.535Z,21.07
2022-10-20T09:15:04.062Z,21.13
2022-10-20T09:17:31.941Z,20.37
2022-10-20T09:20:01.655Z,21.22
2022-10-20T09:22:35.758Z,20.98
2022-10-20T09:25:04.794Z,21.36
2022-10-20T09:27:39.773Z,21.04
2022-10-20T09:30:19.229Z,20.65
2022-10-20T09:32:48.300Z,20.13
2022-10-20T09:35:28.766Z,21.10
2022-10-20T09:38:22.577Z,21.52
2022-10-20T09:41:00.255Z,21.11
2022-10-20T09:43:32.790Z,20.99
2022-10-20T09:46:05.207Z,20.44
2022-10-20T09:48:36.853Z,20.49
2022-10-20T09:51:07.828Z,20.81
2022-10-20T09:53:40.996Z,20.68
2022-10-20T09:56:09.040Z,20.96
2022-10-20T09:58:42.083Z,21.06
2022-10-20T10:01:15.878Z,20.76
2022-10-20T10:03:45.869Z,20.89
2022-10-20T10:06:30.279Z,21.22
2022-10-20T10:08:59.442Z,21.23
2022-10-20T10:11:33.436Z,21.15
2022-10-20T10:14:03.390Z,21.42
2022-10-20T10:16:41.785Z,21.50
2022-10-20T10:19:18.469Z,21.51
2022-10-20T10:21:49.475Z,21.16
2022-10-20T10:24:40.131Z,20.35
2022-10-20T10:27:20.397Z,20.81
2022-10-20T10:29:49.496Z,20.98
2022-10-20T10:32:24.088Z,21.37
2022-10-20T10:35:08.833Z,21.47
2022-10-20T10:37:39.631Z,21.06
2022-10-20T10:40:16.112Z,21.44
2022-10-20T10:43:07.718Z,21.52
2022-10-20T10:45:48.639Z,21.61
2022-10-20T10:48:51.744Z,21.13
2022-10-20T10:51:29.295Z,21.09
2022-10-20T10:54:14.210Z,21.02
2022-10-20T10:56:47.620Z,21.11
2022-10-20T10:59:21.572Z,20.76
2022-10-20T11:02:20.716Z,21.20
2022-10-20T11:07:57.488Z,21.05
2022-10-20T11:10:36.308Z,20.63
2022-10-20T11:13:21.665Z,21.06
2022-10-20T11:16:03.057Z,20.92
2022-10-20T11:19:00.082Z,21.03
2022-10-20T11:21:33.467Z,21.41
2022-10-20T11:24:20.075Z,21.35
2022-10-20T11:26:52.139Z,21.07
2022-10-20T11:29:28.847Z,20.92
2022-10-20T11:32:03.527Z,21.33
2022-10-20T11:34:39.070Z,21.12
2022-10-20T11:37:14.045Z,21.18
2022-10-20T11:39:47.928Z,20.88
2022-10-20T11:42:26.611Z,20.67
2022-10-20T11:44:55.650Z,20.69
2022-10-20T11:47:31.235Z,21.13
2022-10-20T11:50:01.063Z,20.24
2022-10-20T11:52:55.497Z,20.73
2022-10-20T11:55:40.984Z,20.37
2022-10-20T11:58:35.701Z,20.85
2022-10-20T12:01:26.355Z,20.88
2022-10-20T12:04:17.330Z,20.74
2022-10-20T12:07:12.217Z,20.98
2022-10-20T12:09:54.313Z,20.98
2022-10-20T12:12:30.188Z,20.84
2022-10-20T12:15:02.369Z,21.26
2022-10-20T12:17:36.506Z,21.25
2022-10-20T12:20:41.540Z,21.27
2022-10-20T12:23:51.645Z,21.17
2022-10-20T12:26:42.451Z,21.18
2022-10-20T12:29:52.091Z,20.78
2022-10-20T12:33:07.583Z,21.23
2022-10-20T12:36:03.360Z,20.94
2022-10-20T12:38:34.617Z,21.32
2022-10-20T12:41:03.479Z,21.36
2022-10-20T12:43:37.802Z,21.30
2022-10-20T12:46:13.169Z,20.93
2022-10-20T12:48:47.942Z,21.19
2022-10-20T12:51:27.339Z,21.14
2022-10-20T12:54:02.201Z,21.12
2022-10-20T12:56:37.577Z,21.35
2022-10-20T12:59:23.343Z,21.43
2022-10-20T13:02:29.887Z,21.46
2022-10-20T13:05:02.859Z,20.99
2022-10-20T13:08:01.245Z,20.73
2022-10-20T13:10:35.178Z,19.86
2022-10-20T13:13:37.867Z,18.87
2022-10-20T13:16:12.395Z,19.87
2022-10-20T13:18:49.699Z,19.31
2022-10-20T13:21:32.372Z,19.32
2022-10-20T13:24:05.620Z,19.95
2022-10-20T13:26:40.096Z,19.39
2022-10-20T13:29:14.336Z,18.61
2022-10-20T13:31:51.798Z,19.40
2022-10-20T13:34:26.005Z,19.08
2022-10-20T13:37:07.335Z,18.64
2022-10-20T13:39:43.357Z,19.16
2022-10-20T13:42:24.301Z,19.20
2022-10-20T13:45:01.139Z,18.51
2022-10-20T13:47:46.323Z,19.12
2022-10-20T13:52:56.149Z,19.40
2022-10-20T13:55:26.390Z,19.52
2022-10-20T13:57:57.811Z,19.55
2022-10-20T14:00:28.018Z,19.21
2022-10-20T14:03:02.679Z,18.60
2022-10-20T14:05:37.206Z,18.78
2022-10-20T14:08:09.352Z,18.72
2022-10-20T14:10:44.680Z,19.03
2022-10-20T14:13:18.825Z,19.10
2022-10-20T14:15:49.480Z,18.81
2022-10-20T14:18:26.133Z,19.08
2022-10-20T14:21:01.116Z,18.77
2022-10-20T14:23:32.701Z,18.22
2022-10-20T14:26:01.329Z,18.71
2022-10-20T14:28:33.642Z,19.44
2022-10-20T14:31:02.146Z,19.01
2022-10-20T14:33:31.203Z,19.28
2022-10-20T14:36:02.576Z,18.88
2022-10-20T14:38:35.357Z,18.77
2022-10-20T14:41:03.288Z,18.97
2022-10-20T14:43:39.988Z,18.69
2022-10-20T14:46:10.964Z,18.42
2022-10-20T14:48:42.354Z,18.60
2022-10-20T14:51:30.923Z,18.77
2022-10-20T14:54:26.629Z,18.46
2022-10-20T14:56:56.336Z,18.49
2022-10-20T14:59:27.618Z,18.57
2022-10-20T15:02:04.871Z,18.48
2022-10-20T15:04:36.449Z,18.12
2022-10-20T15:07:07.019Z,17.90
2022-10-20T15:09:40.730Z,17.92
2022-10-20T15:12:16.245Z,18.08
2022-10-20T15:14:48.214Z,17.73
2022-10-20T15:17:37.254Z,17.72
2022-10-20T15:20:32.215Z,17.84
2022-10-20T15:23:01.903Z,18.23
2022-10-20T15:25:31.951Z,18.44
2022-10-20T15:28:00.648Z,18.25
2022-10-20T15:30:30.827Z,18.40
2022-10-20T15:32:59.096Z,18.22
2022-10-20T15:35:30.646Z,18.36
2022-10-20T15:37:58.397Z,17.78
2022-10-20T15:40:26.157Z,17.89
2022-10-20T15:42:53.946Z,18.18
2022-10-20T15:45:23.901Z,18.17
2022-10-20T15:47:53.310Z,18.12
2022-10-20T15:50:23.000Z,17.48
2022-10-20T15:52:54.126Z,17.20
2022-10-20T15:55:24.911Z,17.40
2022-10-20T15:57:54.101Z,17.65
2022-10-20T16:00:23.756Z,17.91
2022-10-20T16:02:53.661Z,17.83
2022-10-20T16:05:24.299Z,17.95
2022-10-20T16:07:54.118Z,18.09
2022-10-20T16:10:22.778Z,18.02
2022-10-20T16:12:50.750Z,17.47
2022-10-20T16:15:19.613Z,17.62
2022-10-20T16:20:22.039Z,17.99
2022-10-20T16:22:50.046Z,17.96
2022-10-20T16:25:18.056Z,18.04
2022-10-20T16:27:45.804Z,18.12
2022-10-20T16:30:16.558Z,17.84
2022-10-20T16:32:44.340Z,17.78
2022-10-20T16:35:12.164Z,17.10
2022-10-20T16:37:41.184Z,16.97
2022-10-20T16:40:09.770Z,16.98
2022-10-20T16:42:37.446Z,16.71
2022-10-20T16:45:06.536Z,16.46
2022-10-20T16:47:34.479Z,16.81
2022-10-20T16:50:05.424Z,16.76
2022-10-20T16:52:33.769Z,16.94
2022-10-20T16:55:03.092Z,17.13
2022-10-20T16:57:38.159Z,17.18
2022-10-20T17:00:08.433Z,17.31
2022-10-20T17:02:36.695Z,17.43
2022-10-20T17:05:08.223Z,17.42
2022-10-20T17:07:37.581Z,16.69
2022-10-20T17:10:08.172Z,16.32
2022-10-20T17:12:35.923Z,16.67
2022-10-20T17:15:06.322Z,16.84
2022-10-20T17:17:34.219Z,16.64
2022-10-20T17:20:02.151Z,16.51
2022-10-20T17:22:32.698Z,16.72
2022-10-20T17:25:00.493Z,17.02
2022-10-20T17:27:29.564Z,17.11
2022-10-20T17:29:57.281Z,16.96
2022-10-20T17:32:25.093Z,17.10
2022-10-20T17:34:52.774Z,16.84
2022-10-20T17:37:20.462Z,16.43
2022-10-20T17:39:48.152Z,16.29
2022-10-20T17:42:15.889Z,16.55
2022-10-20T17:44:45.023Z,16.89
2022-10-20T17:47:12.768Z,16.84
2022-10-20T17:49:40.533Z,17.05
2022-10-20T17:52:08.268Z,17.14
2022-10-20T17:54:36.688Z,17.11
2022-10-20T17:57:04.482Z,17.20
2022-10-20T17:59:38.242Z,16.98
2022-10-20T18:02:16.646Z,17.10
2022-10-20T18:04:44.331Z,17.37
2022-10-20T18:07:12.106Z,17.27
2022-10-20T18:09:40.038Z,17.25
2022-10-20T18:12:07.843Z,17.09
2022-10-20T18:14:35.758Z,16.59
2022-10-20T18:17:03.506Z,16.87
2022-10-20T18:19:32.723Z,17.18
2022-10-20T18:22:03.278Z,17.17
2022-10-20T18:24:31.077Z,16.62
2022-10-20T18:26:59.196Z,16.85
2022-10-20T18:29:27.155Z,17.26
2022-10-20T18:31:54.985Z,17.35
2022-10-20T18:34:22.736Z,17.49
2022-10-20T18:36:52.527Z,17.61
2022-10-20T18:39:20.386Z,17.64
2022-10-20T18:41:54.412Z,17.26
2022-10-20T18:44:23.837Z,17.02
2022-10-20T18:46:56.186Z,16.89
2022-10-20T18:49:24.631Z,17.16
2022-10-20T18:51:53.735Z,16.72
2022-10-20T18:54:23.617Z,17.02
2022-10-20T18:56:51.326Z,17.28
2022-10-20T18:59:22.774Z,17.43
2022-10-20T19:01:50.546Z,17.21
2022-10-20T19:04:18.345Z,17.35
2022-10-20T19:06:47.978Z,17.43
2022-10-20T19:09:19.085Z,17.40
2022-10-20T19:11:47.976Z,17.11
2022-10-20T19:14:16.387Z,17.02
2022-10-20T19:16:46.187Z,16.49
2022-10-20T19:19:15.111Z,16.30
2022-10-20T19:21:43.147Z,16.41
2022-10-20T19:24:14.528Z,16.45
2022-10-20T19:26:56.910Z,16.38
2022-10-20T19:29:36.363Z,16.69
2022-10-20T19:32:05.805Z,17.00
2022-10-20T19:34:35.995Z,16.79
2022-10-20T19:37:04.967Z,17.05
2022-10-20T19:39:34.744Z,17.14
2022-10-20T19:42:05.498Z,17.26
2022-10-20T19:44:33.763Z,17.30
2022-10-20T19:47:01.694Z,16.53
2022-10-20T19:49:29.473Z,16.96
2022-10-20T19:51:57.189Z,16.98
2022-10-20T19:54:25.268Z,17.13
2022-10-20T19:56:53.137Z,17.31
2022-10-20T19:59:22.374Z,17.42
2022-10-20T20:01:52.284Z,17.53
2022-10-20T20:04:20.576Z,17.55
2022-10-20T20:06:48.626Z,17.32
2022-10-20T20:09:16.510Z,17.03
2022-10-20T20:11:45.085Z,16.70
2022-10-20T20:14:16.011Z,16.99
2022-10-20T20:16:46.836Z,16.66
2022-10-20T20:19:16.480Z,17.05
2022-10-20T20:21:44.695Z,17.09
2022-10-20T20:24:14.016Z,17.18
2022-10-20T20:26:44.537Z,17.25
2022-10-20T20:29:12.471Z,17.40
2022-10-20T20:31:40.193Z,17.48
2022-10-20T20:34:09.383Z,17.52
2022-10-20T20:36:39.291Z,17.48
2022-10-20T20:39:07.503Z,17.55
2022-10-20T20:41:35.465Z,17.26
2022-10-20T20:44:08.428Z,17.34
2022-10-20T20:46:38.977Z,17.07
2022-10-20T20:49:06.778Z,17.17
2022-10-20T20:51:35.829Z,17.37
2022-10-20T20:54:04.289Z,17.48
2022-10-20T20:56:32.508Z,17.34
2022-10-20T20:59:00.372Z,17.29
2022-10-20T21:01:31.536Z,16.95
2022-10-20T21:04:03.663Z,16.70
2022-10-20T21:06:38.024Z,17.07
2022-10-20T21:09:18.947Z,17.19
2022-10-20T21:11:48.758Z,17.43
2022-10-20T21:14:16.800Z,17.52
2022-10-20T21:16:44.524Z,17.31
2022-10-20T21:19:12.350Z,17.41
2022-10-20T21:21:44.369Z,17.55
2022-10-20T21:24:14.854Z,17.39
2022-10-20T21:26:44.893Z,17.41
2022-10-20T21:29:12.616Z,17.50
2022-10-20T21:31:42.439Z,16.96
2022-10-20T21:34:12.887Z,16.36
2022-10-20T21:36:41.058Z,16.81
2022-10-20T21:39:12.803Z,17.17
2022-10-20T21:41:41.738Z,17.04
2022-10-20T21:44:14.711Z,16.74
2022-10-20T21:46:47.228Z,16.98
2022-10-20T21:49:16.702Z,16.70
2022-10-20T21:51:46.596Z,16.61
2022-10-20T21:54:16.148Z,16.90
2022-10-20T21:56:46.786Z,17.08
2022-10-20T21:59:19.400Z,16.90
2022-10-20T22:01:47.437Z,17.10
2022-10-20T22:04:15.698Z,17.22
2022-10-20T22:06:43.693Z,17.24
2022-10-20T22:09:13.074Z,17.24
2022-10-20T22:11:43.836Z,17.27
2022-10-20T22:14:12.014Z,17.21
2022-10-20T22:16:43.191Z,17.16
2022-10-20T22:19:14.700Z,17.00
2022-10-20T22:21:45.213Z,17.12
2022-10-20T22:24:13.939Z,17.10
2022-10-20T22:26:44.201Z,17.19
2022-10-20T22:29:12.474Z,17.16
2022-10-20T22:31:41.848Z,16.72
2022-10-20T22:34:10.840Z,17.01
2022-10-20T22:36:39.366Z,16.56
2022-10-20T22:39:07.586Z,16.84
2022-10-20T22:41:35.609Z,16.42
2022-10-20T22:44:03.380Z,16.88
2022-10-20T22:46:31.152Z,17.01
2022-10-20T22:49:00.364Z,16.95
2022-10-20T22:51:28.180Z,16.97
2022-10-20T22:53:55.925Z,17.02
2022-10-20T22:56:24.153Z,17.03
2022-10-20T22:58:54.322Z,16.58
2022-10-20T23:01:23.675Z,16.77
2022-10-20T23:03:51.853Z,16.50
2022-10-20T23:06:23.157Z,15.98
2022-10-20T23:08:53.268Z,15.68
2022-10-20T23:11:21.748Z,15.92
2022-10-20T23:13:50.913Z,16.01
2022-10-20T23:16:19.311Z,16.04
2022-10-20T23:18:47.182Z,16.04
2022-10-20T23:21:15.370Z,15.47
2022-10-20T23:23:45.293Z,15.78
2022-10-20T23:26:13.919Z,16.04
2022-10-20T23:28:41.749Z,16.25
2022-10-20T23:31:11.382Z,16.37
2022-10-20T23:33:43.165Z,16.32
2022-10-20T23:36:11.693Z,16.05
2022-10-20T23:38:41.751Z,16.02
2022-10-20T23:41:11.415Z,16.06
2022-10-20T23:43:41.476Z,15.51
2022-10-20T23:46:10.024Z,15.80
2022-10-20T23:48:37.979Z,16.10
2022-10-20T23:51:06.758Z,15.90
2022-10-20T23:53:35.421Z,15.73
2022-10-20T23:56:03.166Z,16.05
2022-10-20T23:58:32.464Z,16.06
